sensor_id;sensor_type;location;lat;lon;timestamp;pressure;altitude;pressure_sealevel;temperature;humidity
5455;BME280;2750;49.050;9.250;2024-01-10T00:02:11;99738.22;;;-1.27;63.13
5455;BME280;2750;49.050;9.250;2024-01-10T00:07:13;99731.69;;;-1.10;63.34
5455;BME280;2750;49.050;9.250;2024-01-10T00:12:16;99724.56;;;-1.32;62.59
5455;BME280;2750;49.050;9.250;2024-01-10T00:17:17;99725.47;;;-1.29;63.34
5455;BME280;2750;49.050;9.250;2024-01-10T00:22:19;99726.78;;;-1.52;63.80
5455;BME280;2750;49.050;9.250;2024-01-10T00:27:21;99725.72;;;-1.65;64.84
5455;BME280;2750;49.050;9.250;2024-01-10T00:32:23;99720.72;;;-1.62;64.33
5455;BME280;2750;49.050;9.250;2024-01-10T00:37:26;99722.97;;;-1.77;64.47
5455;BME280;2750;49.050;9.250;2024-01-10T00:42:29;99721.66;;;-1.55;65.47
5455;BME280;2750;49.050;9.250;2024-01-10T00:47:30;99715.66;;;-1.59;64.59
5455;BME280;2750;49.050;9.250;2024-01-10T00:52:32;99718.97;;;-1.63;65.23
5455;BME280;2750;49.050;9.250;2024-01-10T00:57:35;99717.72;;;-1.86;66.80
5455;BME280;2750;49.050;9.250;2024-01-10T01:02:38;99720.59;;;-1.68;66.28
5455;BME280;2750;49.050;9.250;2024-01-10T01:07:40;99727.44;;;-1.64;66.18
5455;BME280;2750;49.050;9.250;2024-01-10T01:12:43;99723.97;;;-1.69;67.50
5455;BME280;2750;49.050;9.250;2024-01-10T01:17:44;99729.94;;;-1.67;67.47
5455;BME280;2750;49.050;9.250;2024-01-10T01:22:46;99733.19;;;-1.74;67.27
5455;BME280;2750;49.050;9.250;2024-01-10T01:27:49;99733.13;;;-1.78;67.55
5455;BME280;2750;49.050;9.250;2024-01-10T01:32:50;99737.56;;;-1.67;67.25
5455;BME280;2750;49.050;9.250;2024-01-10T01:37:52;99739.41;;;-2.05;68.79
5455;BME280;2750;49.050;9.250;2024-01-10T01:42:55;99729.97;;;-2.10;68.58
5455;BME280;2750;49.050;9.250;2024-01-10T01:47:57;99726.03;;;-1.96;68.33
5455;BME280;2750;49.050;9.250;2024-01-10T01:52:58;99719.13;;;-1.55;67.12
5455;BME280;2750;49.050;9.250;2024-01-10T01:58:01;99724.41;;;-1.91;68.41
5455;BME280;2750;49.050;9.250;2024-01-10T02:03:04;99719.69;;;-2.16;68.24
5455;BME280;2750;49.050;9.250;2024-01-10T02:08:06;99722.19;;;-2.19;68.69
5455;BME280;2750;49.050;9.250;2024-01-10T02:13:09;99720.09;;;-1.46;68.08
5455;BME280;2750;49.050;9.250;2024-01-10T02:18:11;99714.41;;;-1.82;67.55
5455;BME280;2750;49.050;9.250;2024-01-10T02:23:14;99716.47;;;-1.61;67.62
5455;BME280;2750;49.050;9.250;2024-01-10T02:28:17;99702.66;;;-1.77;67.91
5455;BME280;2750;49.050;9.250;2024-01-10T02:33:18;99705.19;;;-1.77;68.06
5455;BME280;2750;49.050;9.250;2024-01-10T02:38:20;99697.91;;;-1.56;66.87
5455;BME280;2750;49.050;9.250;2024-01-10T02:43:25;99700.72;;;-1.37;67.21
5455;BME280;2750;49.050;9.250;2024-01-10T02:48:26;99707.94;;;-1.11;67.30
5455;BME280;2750;49.050;9.250;2024-01-10T02:53:27;99699.78;;;-1.44;66.84
5455;BME280;2750;49.050;9.250;2024-01-10T02:58:31;99696.25;;;-1.54;66.99
5455;BME280;2750;49.050;9.250;2024-01-10T03:03:33;99698.81;;;-1.54;67.13
5455;BME280;2750;49.050;9.250;2024-01-10T03:08:34;99685.63;;;-1.79;68.78
5455;BME280;2750;49.050;9.250;2024-01-10T03:13:37;99679.75;;;-1.77;69.04
5455;BME280;2750;49.050;9.250;2024-01-10T03:18:39;99686.34;;;-1.86;69.77
5455;BME280;2750;49.050;9.250;2024-01-10T03:23:40;99680.91;;;-2.06;69.34
5455;BME280;2750;49.050;9.250;2024-01-10T03:28:45;99680.19;;;-1.99;70.31
5455;BME280;2750;49.050;9.250;2024-01-10T03:33:46;99675.56;;;-2.21;70.13
5455;BME280;2750;49.050;9.250;2024-01-10T03:38:48;99673.44;;;-1.99;70.56
5455;BME280;2750;49.050;9.250;2024-01-10T03:43:51;99663.38;;;-1.92;69.40
5455;BME280;2750;49.050;9.250;2024-01-10T03:48:52;99664.34;;;-2.32;70.32
5455;BME280;2750;49.050;9.250;2024-01-10T03:53:54;99674.69;;;-2.22;70.64
5455;BME280;2750;49.050;9.250;2024-01-10T03:58:57;99679.09;;;-2.13;70.72
5455;BME280;2750;49.050;9.250;2024-01-10T04:03:59;99666.34;;;-2.16;70.46
5455;BME280;2750;49.050;9.250;2024-01-10T04:09:00;99667.34;;;-2.07;70.54
5455;BME280;2750;49.050;9.250;2024-01-10T04:14:04;99678.03;;;-1.78;70.44
5455;BME280;2750;49.050;9.250;2024-01-10T04:19:06;99676.31;;;-1.79;69.89
5455;BME280;2750;49.050;9.250;2024-01-10T04:24:07;99670.88;;;-1.51;68.69
5455;BME280;2750;49.050;9.250;2024-01-10T04:29:10;99674.72;;;-1.18;67.80
5455;BME280;2750;49.050;9.250;2024-01-10T04:34:11;99669.84;;;-1.03;67.77
5455;BME280;2750;49.050;9.250;2024-01-10T04:39:13;99664.44;;;-0.66;68.25
5455;BME280;2750;49.050;9.250;2024-01-10T04:44:16;99661.31;;;-0.42;67.02
5455;BME280;2750;49.050;9.250;2024-01-10T04:49:17;99666.75;;;-0.10;67.60
5455;BME280;2750;49.050;9.250;2024-01-10T04:54:19;99660.28;;;0.22;68.00
5455;BME280;2750;49.050;9.250;2024-01-10T04:59:22;99662.06;;;0.32;67.83
5455;BME280;2750;49.050;9.250;2024-01-10T05:04:23;99670.78;;;0.62;67.63
5455;BME280;2750;49.050;9.250;2024-01-10T05:09:25;99672.59;;;0.75;68.07
5455;BME280;2750;49.050;9.250;2024-01-10T05:14:27;99663.38;;;0.92;68.30
5455;BME280;2750;49.050;9.250;2024-01-10T05:19:29;99665.00;;;0.85;67.62
5455;BME280;2750;49.050;9.250;2024-01-10T05:24:30;99660.00;;;1.01;67.08
5455;BME280;2750;49.050;9.250;2024-01-10T05:29:33;99659.84;;;0.75;64.28
5455;BME280;2750;49.050;9.250;2024-01-10T05:34:35;99662.41;;;0.78;64.61
5455;BME280;2750;49.050;9.250;2024-01-10T05:39:36;99672.56;;;0.69;64.55
5455;BME280;2750;49.050;9.250;2024-01-10T05:44:44;99665.88;;;0.89;63.41
5455;BME280;2750;49.050;9.250;2024-01-10T05:49:46;99665.03;;;0.84;64.57
5455;BME280;2750;49.050;9.250;2024-01-10T05:54:47;99665.09;;;0.98;63.82
5455;BME280;2750;49.050;9.250;2024-01-10T05:59:50;99668.34;;;0.74;64.21
5455;BME280;2750;49.050;9.250;2024-01-10T06:04:56;99668.22;;;0.57;64.44
5455;BME280;2750;49.050;9.250;2024-01-10T06:09:57;99658.84;;;0.56;65.01
5455;BME280;2750;49.050;9.250;2024-01-10T06:15:00;99666.44;;;0.47;64.86
5455;BME280;2750;49.050;9.250;2024-01-10T06:20:02;99668.19;;;0.53;64.88
5455;BME280;2750;49.050;9.250;2024-01-10T06:25:05;99657.28;;;0.72;64.87
5455;BME280;2750;49.050;9.250;2024-01-10T06:30:09;99665.06;;;0.91;64.37
5455;BME280;2750;49.050;9.250;2024-01-10T06:35:11;99678.66;;;0.87;64.53
5455;BME280;2750;49.050;9.250;2024-01-10T06:40:12;99676.09;;;0.86;64.27
5455;BME280;2750;49.050;9.250;2024-01-10T06:45:15;99678.69;;;0.96;64.21
5455;BME280;2750;49.050;9.250;2024-01-10T06:50:17;99682.94;;;0.93;63.66
5455;BME280;2750;49.050;9.250;2024-01-10T06:55:20;99682.25;;;1.18;64.68
5455;BME280;2750;49.050;9.250;2024-01-10T07:00:25;99688.16;;;1.11;63.75
5455;BME280;2750;49.050;9.250;2024-01-10T07:05:27;99697.59;;;1.18;64.07
5455;BME280;2750;49.050;9.250;2024-01-10T07:10:29;99700.09;;;1.12;63.18
5455;BME280;2750;49.050;9.250;2024-01-10T07:15:32;99697.56;;;1.14;63.51
5455;BME280;2750;49.050;9.250;2024-01-10T07:20:33;99707.69;;;1.05;63.77
5455;BME280;2750;49.050;9.250;2024-01-10T07:25:35;99709.56;;;1.28;63.83
5455;BME280;2750;49.050;9.250;2024-01-10T07:30:38;99700.22;;;1.36;63.75
5455;BME280;2750;49.050;9.250;2024-01-10T07:35:40;99706.69;;;0.80;64.19
5455;BME280;2750;49.050;9.250;2024-01-10T07:40:42;99708.81;;;0.27;66.08
5455;BME280;2750;49.050;9.250;2024-01-10T07:45:45;99719.00;;;0.27;67.12
5455;BME280;2750;49.050;9.250;2024-01-10T07:50:46;99711.38;;;0.31;66.02
5455;BME280;2750;49.050;9.250;2024-01-10T07:55:48;99721.56;;;0.28;66.01
5455;BME280;2750;49.050;9.250;2024-01-10T08:00:52;99721.09;;;0.72;65.09
5455;BME280;2750;49.050;9.250;2024-01-10T08:05:54;99721.91;;;0.68;65.36
5455;BME280;2750;49.050;9.250;2024-01-10T08:10:56;99730.50;;;0.79;65.25
5455;BME280;2750;49.050;9.250;2024-01-10T08:15:59;99735.72;;;0.91;64.54
5455;BME280;2750;49.050;9.250;2024-01-10T08:21:00;99724.97;;;1.47;64.13
5455;BME280;2750;49.050;9.250;2024-01-10T08:26:02;99734.34;;;1.41;63.35
5455;BME280;2750;49.050;9.250;2024-01-10T08:31:05;99731.75;;;1.34;63.14
5455;BME280;2750;49.050;9.250;2024-01-10T08:36:07;99749.78;;;1.57;63.01
5455;BME280;2750;49.050;9.250;2024-01-10T08:41:11;99748.94;;;1.62;62.63
5455;BME280;2750;49.050;9.250;2024-01-10T08:46:14;99756.63;;;1.73;63.30
5455;BME280;2750;49.050;9.250;2024-01-10T08:51:16;99746.47;;;1.82;62.64
5455;BME280;2750;49.050;9.250;2024-01-10T08:56:17;99760.88;;;1.65;62.99
5455;BME280;2750;49.050;9.250;2024-01-10T09:01:21;99755.81;;;1.74;62.59
5455;BME280;2750;49.050;9.250;2024-01-10T09:06:23;99755.91;;;1.97;62.79
5455;BME280;2750;49.050;9.250;2024-01-10T09:11:24;99758.59;;;2.40;61.02
5455;BME280;2750;49.050;9.250;2024-01-10T09:16:27;99761.19;;;3.04;60.69
5455;BME280;2750;49.050;9.250;2024-01-10T09:21:29;99765.41;;;3.35;59.68
5455;BME280;2750;49.050;9.250;2024-01-10T09:26:30;99765.38;;;3.57;59.36
5455;BME280;2750;49.050;9.250;2024-01-10T09:31:34;99765.38;;;3.60;60.08
5455;BME280;2750;49.050;9.250;2024-01-10T09:36:35;99767.88;;;3.76;59.59
5455;BME280;2750;49.050;9.250;2024-01-10T09:41:40;99768.84;;;3.41;58.89
5455;BME280;2750;49.050;9.250;2024-01-10T09:46:49;99773.97;;;3.44;59.02
5455;BME280;2750;49.050;9.250;2024-01-10T09:51:57;99771.44;;;2.97;59.55
5455;BME280;2750;49.050;9.250;2024-01-10T09:57:00;99771.41;;;3.22;60.09
5455;BME280;2750;49.050;9.250;2024-01-10T10:02:03;99768.88;;;3.07;60.15
5455;BME280;2750;49.050;9.250;2024-01-10T10:07:04;99765.47;;;2.90;59.79
5455;BME280;2750;49.050;9.250;2024-01-10T10:12:06;99770.56;;;3.11;60.08
5455;BME280;2750;49.050;9.250;2024-01-10T10:17:16;99763.78;;;2.95;61.32
5455;BME280;2750;49.050;9.250;2024-01-10T10:22:17;99763.75;;;3.16;60.76
5455;BME280;2750;49.050;9.250;2024-01-10T10:27:19;99757.75;;;3.25;61.06
5455;BME280;2750;49.050;9.250;2024-01-10T10:32:22;99748.25;;;3.65;60.03
5455;BME280;2750;49.050;9.250;2024-01-10T10:37:23;99762.03;;;3.17;59.89
5455;BME280;2750;49.050;9.250;2024-01-10T10:42:26;99762.88;;;3.32;59.76
5455;BME280;2750;49.050;9.250;2024-01-10T10:47:36;99762.88;;;3.14;59.45
5455;BME280;2750;49.050;9.250;2024-01-10T10:52:40;99734.69;;;3.11;60.10
5455;BME280;2750;49.050;9.250;2024-01-10T10:57:44;99749.16;;;3.50;60.58
5455;BME280;2750;49.050;9.250;2024-01-10T11:02:48;99747.50;;;3.25;60.60
5455;BME280;2750;49.050;9.250;2024-01-10T11:07:49;99754.25;;;3.58;59.70
5455;BME280;2750;49.050;9.250;2024-01-10T11:13:11;99749.03;;;3.85;59.05
5455;BME280;2750;49.050;9.250;2024-01-10T11:18:32;99747.25;;;4.01;59.10
5455;BME280;2750;49.050;9.250;2024-01-10T11:23:43;99736.03;;;4.20;58.31
5455;BME280;2750;49.050;9.250;2024-01-10T11:28:46;99740.31;;;4.19;59.33
5455;BME280;2750;49.050;9.250;2024-01-10T11:33:49;99740.03;;;4.60;58.24
5455;BME280;2750;49.050;9.250;2024-01-10T11:38:58;99733.97;;;4.73;57.90
5455;BME280;2750;49.050;9.250;2024-01-10T11:49:53;99732.72;;;3.98;58.20
5455;BME280;2750;49.050;9.250;2024-01-10T11:54:55;99734.34;;;4.11;58.17
5455;BME280;2750;49.050;9.250;2024-01-10T11:59:56;99720.59;;;4.29;58.23
5455;BME280;2750;49.050;9.250;2024-01-10T12:05:01;99718.09;;;4.15;58.75
5455;BME280;2750;49.050;9.250;2024-01-10T12:10:04;99708.44;;;4.51;58.46
5455;BME280;2750;49.050;9.250;2024-01-10T12:15:06;99718.75;;;4.45;58.15
5455;BME280;2750;49.050;9.250;2024-01-10T12:20:11;99718.75;;;4.48;58.33
5455;BME280;2750;49.050;9.250;2024-01-10T12:25:13;99714.13;;;4.89;57.71
5455;BME280;2750;49.050;9.250;2024-01-10T12:30:15;99716.88;;;4.65;57.52
5455;BME280;2750;49.050;9.250;2024-01-10T12:35:19;99713.28;;;4.90;59.09
5455;BME280;2750;49.050;9.250;2024-01-10T12:40:22;99710.53;;;5.07;57.90
5455;BME280;2750;49.050;9.250;2024-01-10T12:45:24;99701.69;;;5.34;56.99
5455;BME280;2750;49.050;9.250;2024-01-10T12:50:27;99710.53;;;5.08;57.53
5455;BME280;2750;49.050;9.250;2024-01-10T12:55:29;99704.38;;;5.21;58.15
5455;BME280;2750;49.050;9.250;2024-01-10T13:00:30;99711.28;;;5.19;56.93
5455;BME280;2750;49.050;9.250;2024-01-10T13:05:36;99713.13;;;5.05;57.51
5455;BME280;2750;49.050;9.250;2024-01-10T13:10:38;99711.84;;;4.56;57.09
5455;BME280;2750;49.050;9.250;2024-01-10T13:15:39;99717.16;;;4.25;58.03
5455;BME280;2750;49.050;9.250;2024-01-10T13:20:43;99723.81;;;4.58;59.01
5455;BME280;2750;49.050;9.250;2024-01-10T13:25:47;99718.66;;;4.60;58.02
5455;BME280;2750;49.050;9.250;2024-01-10T13:30:49;99715.28;;;4.49;57.89
5455;BME280;2750;49.050;9.250;2024-01-10T13:35:53;99700.63;;;4.67;57.86
5455;BME280;2750;49.050;9.250;2024-01-10T13:40:55;99711.28;;;4.10;59.37
5455;BME280;2750;49.050;9.250;2024-01-10T13:45:56;99718.13;;;4.03;59.08
5455;BME280;2750;49.050;9.250;2024-01-10T13:50:59;99717.06;;;4.44;58.85
5455;BME280;2750;49.050;9.250;2024-01-10T13:56:01;99706.59;;;4.65;59.32
5455;BME280;2750;49.050;9.250;2024-01-10T14:01:02;99699.94;;;4.43;58.42
5455;BME280;2750;49.050;9.250;2024-01-10T14:06:06;99703.56;;;4.08;59.30
5455;BME280;2750;49.050;9.250;2024-01-10T14:11:07;99715.75;;;3.71;60.35
5455;BME280;2750;49.050;9.250;2024-01-10T14:16:09;99726.00;;;3.70;60.58
5455;BME280;2750;49.050;9.250;2024-01-10T14:21:12;99720.84;;;3.73;60.56
5455;BME280;2750;49.050;9.250;2024-01-10T14:26:14;99709.44;;;4.31;59.88
5455;BME280;2750;49.050;9.250;2024-01-10T14:31:17;99715.25;;;4.55;60.98
5455;BME280;2750;49.050;9.250;2024-01-10T14:36:20;99712.81;;;4.40;60.05
5455;BME280;2750;49.050;9.250;2024-01-10T14:41:22;99715.53;;;4.11;60.10
5455;BME280;2750;49.050;9.250;2024-01-10T14:46:23;99719.16;;;3.66;61.29
5455;BME280;2750;49.050;9.250;2024-01-10T14:51:26;99712.31;;;3.74;61.95
5455;BME280;2750;49.050;9.250;2024-01-10T14:56:28;99722.72;;;3.24;63.25
5455;BME280;2750;49.050;9.250;2024-01-10T15:01:29;99723.59;;;3.08;63.48
5455;BME280;2750;49.050;9.250;2024-01-10T15:06:32;99724.47;;;2.93;63.77
5455;BME280;2750;49.050;9.250;2024-01-10T15:11:33;99718.47;;;2.73;66.13
5455;BME280;2750;49.050;9.250;2024-01-10T15:16:35;99724.47;;;2.95;65.26
5455;BME280;2750;49.050;9.250;2024-01-10T15:21:38;99731.28;;;2.97;66.35
5455;BME280;2750;49.050;9.250;2024-01-10T15:26:40;99743.25;;;2.84;66.16
5455;BME280;2750;49.050;9.250;2024-01-10T15:31:42;99748.38;;;3.01;66.30
5455;BME280;2750;49.050;9.250;2024-01-10T15:36:45;99759.44;;;3.33;65.82
5455;BME280;2750;49.050;9.250;2024-01-10T15:41:47;99758.63;;;3.10;65.84
5455;BME280;2750;49.050;9.250;2024-01-10T15:46:49;99758.63;;;3.13;64.87
5455;BME280;2750;49.050;9.250;2024-01-10T15:51:51;99766.31;;;3.09;65.23
5455;BME280;2750;49.050;9.250;2024-01-10T15:56:53;99766.31;;;3.03;65.36
5455;BME280;2750;49.050;9.250;2024-01-10T16:01:55;99761.19;;;2.92;65.54
5455;BME280;2750;49.050;9.250;2024-01-10T16:06:58;99762.91;;;2.85;66.02
5455;BME280;2750;49.050;9.250;2024-01-10T16:11:59;99763.63;;;2.19;68.41
5455;BME280;2750;49.050;9.250;2024-01-10T16:17:01;99773.75;;;1.84;70.86
5455;BME280;2750;49.050;9.250;2024-01-10T16:22:04;99773.81;;;1.95;71.55
5455;BME280;2750;49.050;9.250;2024-01-10T16:27:05;99766.19;;;2.10;69.96
5455;BME280;2750;49.050;9.250;2024-01-10T16:32:07;99773.88;;;2.16;69.97
5455;BME280;2750;49.050;9.250;2024-01-10T16:37:10;99774.78;;;2.26;71.56
5455;BME280;2750;49.050;9.250;2024-01-10T16:42:11;99775.63;;;2.29;70.26
5455;BME280;2750;49.050;9.250;2024-01-10T16:47:14;99778.94;;;2.04;70.13
5455;BME280;2750;49.050;9.250;2024-01-10T16:52:17;99782.03;;;1.36;72.50
5455;BME280;2750;49.050;9.250;2024-01-10T16:57:19;99788.75;;;1.24;73.94
5455;BME280;2750;49.050;9.250;2024-01-10T17:02:21;99786.28;;;1.37;72.88
5455;BME280;2750;49.050;9.250;2024-01-10T17:07:24;99794.84;;;1.41;72.73
5455;BME280;2750;49.050;9.250;2024-01-10T17:12:26;99796.72;;;1.71;72.51
5455;BME280;2750;49.050;9.250;2024-01-10T17:17:28;99799.28;;;1.71;71.10
5455;BME280;2750;49.050;9.250;2024-01-10T17:22:32;99809.25;;;1.33;71.91
5455;BME280;2750;49.050;9.250;2024-01-10T17:27:35;99811.06;;;1.51;72.16
5455;BME280;2750;49.050;9.250;2024-01-10T17:32:37;99814.44;;;1.40;73.54
5455;BME280;2750;49.050;9.250;2024-01-10T17:37:40;99794.69;;;1.18;75.04
5455;BME280;2750;49.050;9.250;2024-01-10T17:42:41;99806.75;;;1.40;73.39
5455;BME280;2750;49.050;9.250;2024-01-10T17:47:43;99807.66;;;1.49;73.08
5455;BME280;2750;49.050;9.250;2024-01-10T17:52:46;99804.16;;;1.36;73.10
5455;BME280;2750;49.050;9.250;2024-01-10T17:57:47;99804.22;;;1.43;73.67
5455;BME280;2750;49.050;9.250;2024-01-10T18:02:49;99804.84;;;1.14;73.95
5455;BME280;2750;49.050;9.250;2024-01-10T18:07:52;99804.78;;;1.08;74.89
5455;BME280;2750;49.050;9.250;2024-01-10T18:12:53;99805.72;;;1.14;75.33
5455;BME280;2750;49.050;9.250;2024-01-10T18:17:57;99802.31;;;1.17;74.27
5455;BME280;2750;49.050;9.250;2024-01-10T18:23:00;99800.53;;;1.08;75.40
5455;BME280;2750;49.050;9.250;2024-01-10T18:28:02;99801.38;;;1.06;75.25
5455;BME280;2750;49.050;9.250;2024-01-10T18:33:04;99789.38;;;0.97;75.29
5455;BME280;2750;49.050;9.250;2024-01-10T18:38:07;99807.13;;;0.82;75.31
5455;BME280;2750;49.050;9.250;2024-01-10T18:43:08;99805.50;;;0.87;75.36
5455;BME280;2750;49.050;9.250;2024-01-10T18:48:10;99813.97;;;0.86;75.96
5455;BME280;2750;49.050;9.250;2024-01-10T18:53:13;99821.25;;;0.46;75.99
5455;BME280;2750;49.050;9.250;2024-01-10T18:58:15;99819.56;;;0.50;77.55
5455;BME280;2750;49.050;9.250;2024-01-10T19:03:17;99810.38;;;0.61;76.63
5455;BME280;2750;49.050;9.250;2024-01-10T19:08:20;99813.84;;;0.71;76.59
5455;BME280;2750;49.050;9.250;2024-01-10T19:13:22;99813.03;;;0.75;75.41
5455;BME280;2750;49.050;9.250;2024-01-10T19:18:23;99807.94;;;0.78;76.05
5455;BME280;2750;49.050;9.250;2024-01-10T19:23:26;99812.19;;;0.73;76.08
5455;BME280;2750;49.050;9.250;2024-01-10T19:28:28;99805.31;;;0.67;75.81
5455;BME280;2750;49.050;9.250;2024-01-10T19:33:30;99812.88;;;0.60;76.44
5455;BME280;2750;49.050;9.250;2024-01-10T19:38:32;99815.41;;;0.54;76.16
5455;BME280;2750;49.050;9.250;2024-01-10T19:43:34;99805.91;;;0.43;77.03
5455;BME280;2750;49.050;9.250;2024-01-10T19:48:36;99823.84;;;0.50;76.31
5455;BME280;2750;49.050;9.250;2024-01-10T19:53:38;99818.66;;;0.42;76.67
5455;BME280;2750;49.050;9.250;2024-01-10T19:58:40;99811.81;;;0.38;76.11
5455;BME280;2750;49.050;9.250;2024-01-10T20:03:42;99817.00;;;0.45;76.71
5455;BME280;2750;49.050;9.250;2024-01-10T20:08:45;99816.25;;;0.56;76.02
5455;BME280;2750;49.050;9.250;2024-01-10T20:13:46;99815.19;;;0.38;76.66
5455;BME280;2750;49.050;9.250;2024-01-10T20:18:48;99824.53;;;0.35;76.97
5455;BME280;2750;49.050;9.250;2024-01-10T20:23:51;99826.75;;;0.06;78.00
5455;BME280;2750;49.050;9.250;2024-01-10T20:28:52;99829.16;;;-0.05;77.27
5455;BME280;2750;49.050;9.250;2024-01-10T20:33:54;99827.66;;;0.11;76.52
5455;BME280;2750;49.050;9.250;2024-01-10T20:38:58;99835.22;;;0.05;76.29
5455;BME280;2750;49.050;9.250;2024-01-10T20:43:59;99832.41;;;-0.16;77.23
5455;BME280;2750;49.050;9.250;2024-01-10T20:49:01;99831.59;;;-0.14;77.04
5455;BME280;2750;49.050;9.250;2024-01-10T20:54:04;99841.63;;;-0.27;77.37
5455;BME280;2750;49.050;9.250;2024-01-10T20:59:05;99837.91;;;-0.46;78.73
5455;BME280;2750;49.050;9.250;2024-01-10T21:04:06;99849.03;;;-0.42;79.88
5455;BME280;2750;49.050;9.250;2024-01-10T21:09:09;99849.75;;;-0.50;80.81
5455;BME280;2750;49.050;9.250;2024-01-10T21:14:11;99836.13;;;-0.55;81.33
5455;BME280;2750;49.050;9.250;2024-01-10T21:19:13;99831.25;;;-0.39;79.33
5455;BME280;2750;49.050;9.250;2024-01-10T21:24:15;99832.19;;;-0.33;79.16
5455;BME280;2750;49.050;9.250;2024-01-10T21:29:18;99827.22;;;-0.24;79.45
5455;BME280;2750;49.050;9.250;2024-01-10T21:34:19;99829.41;;;-0.48;78.08
5455;BME280;2750;49.050;9.250;2024-01-10T21:39:23;99830.69;;;-0.76;80.32
5455;BME280;2750;49.050;9.250;2024-01-10T21:44:25;99832.44;;;-0.72;80.67
5455;BME280;2750;49.050;9.250;2024-01-10T21:49:27;99834.09;;;-0.77;80.57
5455;BME280;2750;49.050;9.250;2024-01-10T21:54:30;99835.16;;;-0.63;78.94
5455;BME280;2750;49.050;9.250;2024-01-10T21:59:33;99839.88;;;-0.85;80.82
5455;BME280;2750;49.050;9.250;2024-01-10T22:04:34;99842.22;;;-1.46;80.90
5455;BME280;2750;49.050;9.250;2024-01-10T22:09:37;99844.69;;;-1.02;82.03
5455;BME280;2750;49.050;9.250;2024-01-10T22:14:38;99839.59;;;-1.02;83.12
5455;BME280;2750;49.050;9.250;2024-01-10T22:19:40;99844.13;;;-0.86;81.58
5455;BME280;2750;49.050;9.250;2024-01-10T22:24:42;99841.72;;;-0.77;80.95
5455;BME280;2750;49.050;9.250;2024-01-10T22:29:45;99835.91;;;-0.70;80.26
5455;BME280;2750;49.050;9.250;2024-01-10T22:34:47;99839.25;;;-0.71;79.41
5455;BME280;2750;49.050;9.250;2024-01-10T22:39:50;99851.06;;;-0.77;78.78
5455;BME280;2750;49.050;9.250;2024-01-10T22:44:51;99850.97;;;-0.82;79.15
5455;BME280;2750;49.050;9.250;2024-01-10T22:49:52;99856.59;;;-1.01;78.94
5455;BME280;2750;49.050;9.250;2024-01-10T22:54:55;99858.50;;;-0.89;78.50
5455;BME280;2750;49.050;9.250;2024-01-10T22:59:57;99853.28;;;-0.96;79.54
5455;BME280;2750;49.050;9.250;2024-01-10T23:04:58;99854.09;;;-0.98;78.36
5455;BME280;2750;49.050;9.250;2024-01-10T23:10:01;99857.53;;;-0.96;78.72
5455;BME280;2750;49.050;9.250;2024-01-10T23:15:03;99851.59;;;-0.95;78.54
5455;BME280;2750;49.050;9.250;2024-01-10T23:20:06;99855.38;;;-1.21;77.72
5455;BME280;2750;49.050;9.250;2024-01-10T23:25:09;99843.56;;;-1.19;78.14
5455;BME280;2750;49.050;9.250;2024-01-10T23:30:12;99836.63;;;-1.26;79.35
5455;BME280;2750;49.050;9.250;2024-01-10T23:35:14;99836.03;;;-1.13;79.81
5455;BME280;2750;49.050;9.250;2024-01-10T23:40:17;99846.97;;;-1.17;78.94
5455;BME280;2750;49.050;9.250;2024-01-10T23:45:18;99846.94;;;-1.20;78.74
5455;BME280;2750;49.050;9.250;2024-01-10T23:50:20;99842.56;;;-1.26;78.23
5455;BME280;2750;49.050;9.250;2024-01-10T23:55:23;99839.22;;;-1.25;77.92
